createdAt,value
2019-05-16T00:06:58.449Z,67.09
2019-05-16T00:16:58.772Z,66.00
2019-05-16T00:26:58.022Z,67.25
2019-05-16T00:36:58.184Z,69.17
2019-05-16T00:46:58.124Z,70.63
2019-05-16T00:56:57.790Z,72.06
2019-05-16T01:06:58.525Z,73.40
2019-05-16T01:16:58.113Z,75.24
2019-05-16T01:26:57.772Z,76.33
2019-05-16T01:36:58.787Z,77.27
2019-05-16T01:46:58.512Z,77.86
2019-05-16T01:56:56.576Z,78.35
2019-05-16T02:06:58.454Z,79.94
2019-05-16T02:16:58.026Z,80.66
2019-05-16T02:26:58.887Z,81.92
2019-05-16T02:37:14.700Z,82.74
2019-05-16T02:46:56.608Z,83.24
2019-05-16T02:56:56.578Z,83.42
2019-05-16T03:06:56.537Z,83.80
2019-05-16T03:16:56.671Z,83.59
2019-05-16T03:26:56.612Z,83.01
2019-05-16T03:36:56.626Z,82.85
2019-05-16T03:46:56.501Z,82.50
2019-05-16T03:56:56.575Z,82.54
2019-05-16T04:06:56.529Z,82.64
2019-05-16T04:16:56.529Z,82.69
2019-05-16T04:26:56.491Z,82.48
2019-05-16T04:36:56.675Z,82.16
2019-05-16T04:46:56.630Z,81.83
2019-05-16T04:56:56.592Z,81.59
2019-05-16T05:06:56.558Z,80.58
2019-05-16T05:16:56.535Z,79.37
2019-05-16T05:26:56.610Z,77.99
2019-05-16T05:36:56.597Z,71.53
2019-05-16T05:46:56.522Z,62.29
2019-05-16T05:56:56.478Z,59.25
2019-05-16T06:06:56.668Z,59.67
2019-05-16T06:16:56.631Z,59.94
2019-05-16T06:26:56.599Z,58.57
2019-05-16T06:36:56.643Z,59.10
2019-05-16T06:47:14.955Z,56.77
2019-05-16T06:56:56.616Z,54.16
2019-05-16T07:06:59.407Z,54.62
2019-05-16T07:16:56.594Z,51.98
2019-05-16T07:26:56.582Z,48.46
2019-05-16T07:36:56.566Z,45.55
2019-05-16T07:46:56.545Z,47.11
2019-05-16T07:57:08.053Z,46.84
2019-05-16T08:06:56.680Z,45.04
2019-05-16T08:16:56.581Z,42.70
2019-05-16T08:27:01.039Z,43.62
2019-05-16T08:36:56.654Z,39.38
2019-05-16T08:46:58.136Z,40.80
2019-05-16T08:56:56.798Z,40.98
2019-05-16T09:06:56.636Z,40.78
2019-05-16T09:16:57.987Z,41.55
2019-05-16T09:26:57.906Z,41.71
2019-05-16T09:37:00.602Z,41.72
2019-05-16T09:46:57.077Z,40.11
2019-05-16T09:56:57.185Z,38.37
2019-05-16T10:06:57.170Z,40.85
2019-05-16T10:16:57.882Z,39.51
2019-05-16T10:26:57.187Z,39.71
2019-05-16T10:36:57.527Z,42.02
2019-05-16T10:46:56.637Z,37.86
2019-05-16T10:56:57.644Z,37.90
2019-05-16T11:06:57.284Z,35.79
2019-05-16T11:16:58.285Z,38.77
2019-05-16T11:26:57.199Z,40.61
2019-05-16T11:36:57.078Z,39.98
2019-05-16T11:46:57.601Z,37.38
2019-05-16T11:56:57.037Z,34.38
2019-05-16T12:06:57.427Z,35.62
2019-05-16T12:16:56.993Z,36.77
2019-05-16T12:26:56.881Z,35.51
2019-05-16T12:36:56.766Z,34.30
2019-05-16T12:46:57.059Z,36.90
2019-05-16T12:56:58.074Z,36.83
2019-05-16T13:06:57.940Z,41.95
2019-05-16T13:16:56.613Z,40.84
2019-05-16T13:26:57.135Z,37.51
2019-05-16T13:36:57.914Z,36.56
2019-05-16T13:46:56.970Z,39.92
2019-05-16T13:56:57.232Z,39.52
2019-05-16T14:06:58.777Z,38.44
2019-05-16T14:16:56.721Z,37.88
2019-05-16T14:26:57.373Z,39.19
2019-05-16T14:36:57.861Z,39.77
2019-05-16T14:46:56.748Z,41.46
2019-05-16T14:57:00.989Z,39.29
2019-05-16T15:06:57.302Z,39.52
2019-05-16T15:16:57.769Z,41.81
2019-05-16T15:27:00.918Z,43.19
2019-05-16T15:36:59.844Z,47.19
2019-05-16T15:46:59.799Z,49.67
2019-05-16T15:56:56.586Z,53.27
2019-05-16T16:06:56.748Z,54.65
2019-05-16T16:16:57.069Z,53.50
2019-05-16T16:26:56.841Z,53.82
2019-05-16T16:36:57.035Z,55.49
2019-05-16T16:46:57.334Z,55.96
2019-05-16T16:56:56.670Z,56.25
2019-05-16T17:06:56.897Z,56.49
2019-05-16T17:16:57.527Z,58.05
2019-05-16T17:26:57.760Z,59.92
2019-05-16T17:36:57.131Z,60.57
2019-05-16T17:46:57.481Z,60.18
2019-05-16T17:56:56.829Z,61.15
2019-05-16T18:06:57.670Z,60.93
2019-05-16T18:16:59.564Z,60.69
2019-05-16T18:26:57.205Z,61.67
2019-05-16T18:36:57.230Z,62.78
2019-05-16T18:47:04.793Z,62.73
2019-05-16T18:56:57.870Z,64.07
2019-05-16T19:06:59.367Z,63.91
2019-05-16T19:16:56.733Z,64.10
2019-05-16T19:26:57.550Z,64.22
2019-05-16T19:36:57.500Z,64.79
2019-05-16T19:46:57.381Z,65.47
2019-05-16T19:56:56.728Z,65.84
2019-05-16T20:06:56.788Z,66.39
2019-05-16T20:16:56.774Z,65.76
2019-05-16T20:26:57.212Z,65.81
2019-05-16T20:36:57.245Z,65.19
2019-05-16T20:46:56.867Z,65.34
2019-05-16T20:56:57.362Z,64.97
2019-05-16T21:07:01.500Z,65.09
2019-05-16T21:16:57.752Z,65.54
2019-05-16T21:26:56.619Z,68.09
2019-05-16T21:37:00.903Z,69.62
2019-05-16T21:46:56.750Z,70.97
2019-05-16T21:56:57.144Z,72.16
2019-05-16T22:06:56.766Z,72.80
2019-05-16T22:16:56.934Z,74.08
2019-05-16T22:26:57.123Z,77.13
2019-05-16T22:36:57.259Z,79.56
2019-05-16T22:46:56.757Z,81.51
2019-05-16T22:56:57.303Z,82.19
2019-05-16T23:06:56.686Z,83.37
2019-05-16T23:16:57.092Z,85.24
2019-05-16T23:26:56.666Z,85.86
2019-05-16T23:36:57.105Z,87.56
2019-05-16T23:46:56.636Z,87.62
2019-05-16T23:56:57.511Z,89.32
